Time;durP1;ratioP1;P1;durP2;ratioP2;P2;SDS_P1;SDS_P2;PMS_P1;PMS_P2;Temp;Humidity;BMP_temperature;BMP_pressure;BME280_temperature;BME280_humidity;BME280_pressure;Samples;Min_cycle;Max_cycle;Signal;HPM_P1;HPM_P2
2022/04/02 00:02:23;;;;;;;39.00;26.17;;;;;;;0.16;100.00;100626.53;6284079;22;20031;-84
2022/04/02 00:04:51;;;;;;;36.08;25.83;;;;;;;0.20;100.00;100635.72;6284336;22;20051;-83
2022/04/02 00:07:17;;;;;;;36.47;27.10;;;;;;;0.15;100.00;100640.31;6282555;22;20071;-83
2022/04/02 00:09:44;;;;;;;36.92;26.48;;;;;;;0.14;100.00;100635.25;6283033;22;20050;-83
2022/04/02 00:12:11;;;;;;;38.30;26.48;;;;;;;0.21;100.00;100634.81;6283170;22;20034;-83
2022/04/02 00:14:38;;;;;;;36.15;25.48;;;;;;;0.22;100.00;100641.63;6284169;22;20042;-83
2022/04/02 00:17:05;;;;;;;35.08;24.98;;;;;;;0.18;100.00;100640.13;6282682;22;20498;-82
2022/04/02 00:19:32;;;;;;;38.65;24.98;;;;;;;0.22;100.00;100646.75;6284397;22;20056;-83
2022/04/02 00:22:00;;;;;;;38.85;26.33;;;;;;;0.17;100.00;100641.03;6288949;22;20034;-83
2022/04/02 00:24:27;;;;;;;38.13;27.10;;;;;;;0.18;100.00;100636.72;6288884;22;20023;-84
2022/04/02 00:26:53;;;;;;;36.72;25.27;;;;;;;0.18;100.00;100640.13;6281341;22;20020;-83
2022/04/02 00:29:20;;;;;;;38.70;26.38;;;;;;;0.19;100.00;100636.63;6280784;22;20385;-84
2022/04/02 00:31:47;;;;;;;38.80;26.27;;;;;;;0.15;99.97;100640.31;6281172;22;20123;-83
2022/04/02 00:34:13;;;;;;;37.03;26.20;;;;;;;0.19;100.00;100646.09;6280965;22;20043;-82
2022/04/02 00:36:40;;;;;;;36.97;25.70;;;;;;;0.09;100.00;100645.81;6279675;22;20016;-83
2022/04/02 00:39:09;;;;;;;35.78;24.63;;;;;;;0.06;100.00;100640.84;6280124;22;20051;-86
2022/04/02 00:41:36;;;;;;;35.55;24.30;;;;;;;0.14;100.00;100650.69;6281855;22;20047;-84
2022/04/02 00:44:10;;;;;;;34.20;24.40;;;;;;;0.12;100.00;100644.81;6281081;22;20023;-84
2022/04/02 00:46:38;;;;;;;31.90;22.60;;;;;;;0.07;100.00;100633.94;6282057;22;20034;-84
2022/04/02 00:49:06;;;;;;;29.73;22.00;;;;;;;0.12;100.00;100645.63;6280917;22;20035;-84
2022/04/02 00:51:34;;;;;;;33.53;23.63;;;;;;;0.16;100.00;100638.56;6280744;22;20023;-84
2022/04/02 00:54:01;;;;;;;33.70;22.20;;;;;;;0.16;100.00;100648.84;6281833;22;20054;-84
2022/04/02 00:56:30;;;;;;;33.20;22.13;;;;;;;0.05;99.80;100639.19;6281030;22;20477;-83
2022/04/02 00:59:00;;;;;;;32.85;20.00;;;;;;;0.07;100.00;100646.81;6284532;22;20023;-84
2022/04/02 01:01:26;;;;;;;29.95;19.70;;;;;;;0.09;100.00;100643.22;6284655;22;20116;-84
2022/04/02 01:03:53;;;;;;;28.30;18.77;;;;;;;0.10;100.00;100652.59;6288734;22;20053;-84
2022/04/02 01:06:20;;;;;;;30.00;17.30;;;;;;;0.12;100.00;100650.78;6299518;22;20020;-86
2022/04/02 01:08:47;;;;;;;25.00;17.65;;;;;;;0.08;99.86;100633.84;6299718;22;20019;-86
2022/04/02 01:11:14;;;;;;;22.88;16.17;;;;;;;0.04;99.84;100634.94;6300069;22;20030;-86
2022/04/02 01:13:42;;;;;;;22.80;15.80;;;;;;;0.07;99.82;100647.63;6294992;22;20027;-86
2022/04/02 01:16:09;;;;;;;23.08;15.32;;;;;;;0.04;99.30;100655.53;6285222;22;20047;-86
2022/04/02 01:18:35;;;;;;;21.23;14.45;;;;;;;0.05;99.80;100652.03;6285942;22;20031;-85
2022/04/02 01:21:02;;;;;;;19.33;13.55;;;;;;;0.11;99.85;100654.25;6286455;22;20027;-85
2022/04/02 01:23:30;;;;;;;21.92;13.80;;;;;;;0.00;99.21;100642.00;6287498;22;20034;-86
2022/04/02 01:25:59;;;;;;;19.35;13.73;;;;;;;0.07;99.57;100641.66;6285869;22;20058;-84
2022/04/02 01:28:25;;;;;;;20.65;13.80;;;;;;;0.13;99.49;100649.03;6284419;22;20355;-84
2022/04/02 01:30:52;;;;;;;22.38;14.00;;;;;;;0.12;99.55;100655.91;6285518;22;20024;-85
2022/04/02 01:33:19;;;;;;;20.55;14.07;;;;;;;0.09;99.58;100650.13;6284580;22;20054;-86
2022/04/02 01:35:45;;;;;;;21.73;14.30;;;;;;;0.07;99.45;100651.97;6283801;22;20058;-85
2022/04/02 01:38:12;;;;;;;18.48;13.13;;;;;;;0.08;99.16;100644.16;6282983;22;20047;-84
2022/04/02 01:40:40;;;;;;;21.10;12.95;;;;;;;0.02;99.85;100654.78;6284467;22;20024;-85
2022/04/02 01:43:07;;;;;;;19.40;12.60;;;;;;;0.02;99.27;100654.78;6283351;22;20069;-85
2022/04/02 01:45:33;;;;;;;19.58;13.30;;;;;;;0.04;99.51;100650.38;6283724;22;20024;-84
2022/04/02 01:48:00;;;;;;;22.42;14.02;;;;;;;0.02;99.77;100654.78;6283530;22;20047;-82
2022/04/02 01:50:26;;;;;;;18.20;13.63;;;;;;;0.05;99.56;100652.03;6281550;22;20083;-85
2022/04/02 01:52:53;;;;;;;18.08;12.80;;;;;;;0.04;99.39;100663.25;6283083;22;20043;-84
2022/04/02 01:55:20;;;;;;;18.55;12.95;;;;;;;-0.03;99.85;100655.09;6285343;22;20047;-85
2022/04/02 01:57:48;;;;;;;21.92;13.27;;;;;;;0.02;99.61;100657.38;6284873;22;20058;-84
2022/04/02 02:00:16;;;;;;;21.50;13.43;;;;;;;-0.03;100.00;100656.84;6284183;22;20023;-85
2022/04/02 02:02:42;;;;;;;17.95;12.40;;;;;;;0.01;100.00;100660.84;6282868;22;20043;-85
2022/04/02 02:05:09;;;;;;;19.80;13.43;;;;;;;-0.01;99.81;100660.16;6283243;22;20051;-85
2022/04/02 02:07:36;;;;;;;18.85;12.88;;;;;;;-0.02;99.56;100659.31;6283053;22;20081;-85
2022/04/02 02:10:03;;;;;;;17.48;12.52;;;;;;;-0.01;100.00;100670.44;6280446;22;20028;-85
2022/04/02 02:12:30;;;;;;;18.08;13.00;;;;;;;-0.05;99.95;100653.50;6280877;22;20091;-85
2022/04/02 02:14:58;;;;;;;18.80;12.80;;;;;;;-0.02;100.00;100663.63;6281404;22;20020;-84
2022/04/02 02:17:25;;;;;;;18.77;12.52;;;;;;;0.03;99.75;100666.75;6282340;22;20047;-85
2022/04/02 02:19:51;;;;;;;20.52;12.55;;;;;;;-0.07;99.65;100661.31;6281965;22;20145;-85
2022/04/02 02:22:18;;;;;;;18.98;13.00;;;;;;;-0.05;100.00;100663.81;6282290;22;20019;-85
2022/04/02 02:24:45;;;;;;;16.98;12.55;;;;;;;-0.10;99.91;100668.38;6290895;22;20008;-83
2022/04/02 02:27:11;;;;;;;22.30;13.10;;;;;;;-0.04;100.00;100675.75;6284444;22;20027;-85
2022/04/02 02:29:38;;;;;;;19.92;12.25;;;;;;;-0.06;100.00;100672.44;6283752;22;20019;-85
2022/04/02 02:32:07;;;;;;;21.02;12.40;;;;;;;-0.07;100.00;100670.78;6285623;22;20071;-85
2022/04/02 02:37:18;;;;;;;17.70;11.18;;;;;;;-0.12;99.60;100680.50;6283224;22;20046;-85
2022/04/02 02:39:45;;;;;;;17.42;11.70;;;;;;;-0.05;99.61;100681.81;6287993;22;20098;-85
2022/04/02 02:42:12;;;;;;;17.55;11.07;;;;;;;-0.05;99.98;100681.81;6287808;22;20360;-85
2022/04/02 02:44:38;;;;;;;17.08;11.27;;;;;;;-0.05;99.86;100682.63;6290107;22;20027;-85
2022/04/02 02:47:07;;;;;;;15.88;11.35;;;;;;;-0.06;99.60;100675.84;6285436;22;20058;-85
2022/04/02 02:49:34;;;;;;;16.52;10.23;;;;;;;-0.04;99.42;100691.19;6283351;22;20440;-85
2022/04/02 02:52:02;;;;;;;18.13;10.80;;;;;;;0.06;99.02;100676.84;6283249;22;20115;-85
2022/04/02 02:54:28;;;;;;;16.73;10.48;;;;;;;-0.03;97.44;100677.41;6282606;22;20026;-85
2022/04/02 02:56:55;;;;;;;15.68;9.30;;;;;;;0.02;97.70;100689.97;6281552;22;20464;-82
2022/04/02 02:59:22;;;;;;;14.00;8.95;;;;;;;0.03;97.61;100682.19;6279830;22;20056;-83
2022/04/02 03:01:49;;;;;;;15.73;8.65;;;;;;;0.06;96.25;100686.31;6281277;22;20031;-82
2022/04/02 03:04:18;;;;;;;15.27;8.48;;;;;;;0.05;95.78;100687.22;6282807;22;20064;-85
2022/04/02 03:06:44;;;;;;;12.60;8.27;;;;;;;0.06;96.16;100688.88;6281195;22;20024;-84
2022/04/02 03:09:11;;;;;;;13.70;7.95;;;;;;;0.11;95.84;100685.16;6282088;22;20126;-84
2022/04/02 03:11:37;;;;;;;10.82;7.72;;;;;;;0.09;95.34;100696.44;6280808;22;20059;-85
2022/04/02 03:14:04;;;;;;;14.30;7.75;;;;;;;0.12;95.19;100697.09;6283565;22;20023;-84
2022/04/02 03:16:32;;;;;;;12.23;7.50;;;;;;;0.11;95.07;100699.75;6283497;22;20062;-84
2022/04/02 03:19:00;;;;;;;11.50;7.85;;;;;;;0.13;95.24;100697.91;6283079;22;20024;-85
2022/04/02 03:21:28;;;;;;;14.60;8.07;;;;;;;0.15;95.45;100699.50;6284314;22;20011;-83
2022/04/02 03:23:55;;;;;;;12.02;7.45;;;;;;;0.13;94.02;100698.75;6285120;22;20028;-82
2022/04/02 03:26:22;;;;;;;10.05;6.93;;;;;;;0.17;93.32;100697.66;6283529;22;20043;-84
2022/04/02 03:28:49;;;;;;;13.15;7.10;;;;;;;0.19;93.07;100698.41;6282015;22;20035;-85
2022/04/02 03:31:15;;;;;;;11.95;6.85;;;;;;;0.20;93.48;100694.91;6283420;22;20026;-85
2022/04/02 03:33:42;;;;;;;11.20;7.30;;;;;;;0.20;93.14;100699.22;6282724;22;20398;-84
2022/04/02 03:36:10;;;;;;;12.65;6.97;;;;;;;0.25;92.40;100698.06;6283241;22;20318;-84
2022/04/02 03:38:38;;;;;;;9.30;6.50;;;;;;;0.27;92.84;100690.25;6283562;22;20470;-84
2022/04/02 03:41:05;;;;;;;12.00;6.68;;;;;;;0.27;92.66;100697.97;6282785;22;20468;-84
2022/04/02 03:43:32;;;;;;;11.32;6.50;;;;;;;0.27;92.92;100693.66;6282836;22;20031;-84
2022/04/02 03:47:08;;;;;;;11.80;6.35;;;;;;;0.27;92.99;100696.22;6282704;22;20024;-85
2022/04/02 03:48:45;;;;;;;10.25;6.57;;;;;;;0.32;91.23;100701.94;6281624;22;20020;-84
2022/04/02 03:51:12;;;;;;;9.13;5.57;;;;;;;0.31;89.77;100702.84;6282996;22;20099;-84
2022/04/02 03:53:40;;;;;;;10.48;5.97;;;;;;;0.35;89.57;100697.53;6282752;22;20058;-84
2022/04/02 03:56:10;;;;;;;10.43;6.22;;;;;;;0.46;88.98;100697.72;6281236;22;20686;-84
2022/04/02 03:58:37;;;;;;;9.27;5.75;;;;;;;0.40;88.10;100692.94;6282690;22;20074;-84
2022/04/02 04:01:06;;;;;;;9.00;5.93;;;;;;;0.44;87.55;100694.41;6285906;22;20371;-84
2022/04/02 04:03:33;;;;;;;8.43;5.35;;;;;;;0.43;87.22;100709.03;6281856;22;20019;-84
2022/04/02 04:06:00;;;;;;;11.40;5.60;;;;;;;0.46;87.42;100705.44;6281850;22;20024;-84
2022/04/02 04:08:27;;;;;;;8.70;5.53;;;;;;;0.48;85.41;100699.28;6281700;22;20039;-84
2022/04/02 04:10:55;;;;;;;7.05;4.90;;;;;;;0.52;85.68;100725.66;6281508;22;20279;-83
2022/04/02 04:13:21;;;;;;;13.73;5.50;;;;;;;0.50;85.96;100714.63;6281886;22;20100;-83
2022/04/02 04:15:48;;;;;;;7.13;5.13;;;;;;;0.56;85.45;100716.84;6281795;22;20023;-83
2022/04/02 04:18:15;;;;;;;9.18;5.45;;;;;;;0.55;86.01;100721.16;6281272;22;20054;-83
2022/04/02 04:20:41;;;;;;;10.82;5.35;;;;;;;0.53;84.80;100717.84;6282423;22;20070;-84
2022/04/02 04:23:08;;;;;;;8.38;4.90;;;;;;;0.54;85.29;100719.50;6283009;22;20380;-83
2022/04/02 04:25:35;;;;;;;9.50;4.93;;;;;;;0.50;84.78;100717.19;6281991;22;20037;-83
2022/04/02 04:28:03;;;;;;;8.00;5.28;;;;;;;0.54;85.31;100729.81;6281432;22;20016;-83
2022/04/02 04:30:30;;;;;;;6.97;4.95;;;;;;;0.52;84.11;100733.38;6281936;22;20027;-84
2022/04/02 04:32:57;;;;;;;9.73;4.82;;;;;;;0.49;83.81;100729.25;6283278;22;20058;-84
2022/04/02 04:35:24;;;;;;;8.70;5.28;;;;;;;0.48;84.43;100737.06;6280351;22;20098;-84
2022/04/02 04:37:51;;;;;;;8.75;4.75;;;;;;;0.47;83.64;100727.72;6282090;22;20051;-85
2022/04/02 04:40:18;;;;;;;8.35;4.85;;;;;;;0.43;83.26;100742.50;6283526;22;20372;-85
2022/04/02 04:42:45;;;;;;;9.32;5.05;;;;;;;0.39;83.85;100747.91;6284396;22;20083;-85
2022/04/02 04:45:13;;;;;;;7.25;4.25;;;;;;;0.47;82.02;100751.72;6283449;22;20031;-84
2022/04/02 04:47:45;;;;;;;8.88;4.88;;;;;;;0.49;83.19;100749.00;6282891;22;20038;-86
2022/04/02 04:50:13;;;;;;;13.55;5.07;;;;;;;0.45;83.33;100750.97;6281412;22;20011;-83
2022/04/02 04:55:08;;;;;;;8.07;5.05;;;;;;;0.42;81.71;100755.47;6248276;23;20011;-78
2022/04/02 04:57:35;;;;;;;8.50;4.93;;;;;;;0.43;82.55;100755.38;6251118;23;20024;-82
2022/04/02 05:00:02;;;;;;;7.63;4.65;;;;;;;0.46;82.20;100755.19;6251567;23;20020;-80
2022/04/02 05:02:31;;;;;;;6.57;4.63;;;;;;;0.47;82.10;100763.75;6251866;22;20047;-81
2022/04/02 05:05:36;;;;;;;;;;;;;;;;;;;;;
2022/04/02 05:13:10;;;;;;;7.28;4.72;;;;;;;0.29;80.99;100763.88;6225407;23;20013;-80
2022/04/02 05:15:36;;;;;;;6.25;4.32;;;;;;;0.37;82.37;100767.75;6229492;23;20024;-80
2022/04/02 05:18:07;;;;;;;9.23;4.93;;;;;;;0.32;83.65;100776.56;6228214;23;20044;-80
2022/04/02 05:20:35;;;;;;;8.02;4.70;;;;;;;0.42;83.50;100773.47;6231346;23;20027;-80
2022/04/02 05:23:01;;;;;;;7.97;4.43;;;;;;;0.39;82.12;100791.66;6231868;23;20039;-80
2022/04/02 05:50:31;;;;;;;6.57;4.45;;;;;;;0.48;78.39;100791.13;6250042;23;20356;-80
2022/04/02 05:52:59;;;;;;;7.70;4.60;;;;;;;0.50;77.89;100794.44;6224016;23;20091;-79
2022/04/02 05:55:28;;;;;;;7.68;4.40;;;;;;;0.57;78.61;100818.94;6249243;23;20028;-80
2022/04/02 05:57:55;;;;;;;6.68;4.97;;;;;;;0.54;78.69;100819.09;6248293;23;20016;-79
2022/04/02 06:00:23;;;;;;;8.70;4.30;;;;;;;0.57;78.12;100822.31;6249767;23;20020;-80
2022/04/02 06:02:53;;;;;;;6.63;4.35;;;;;;;0.48;77.34;100806.56;6254264;22;20028;-82
2022/04/02 06:05:20;;;;;;;7.50;4.47;;;;;;;0.49;77.47;100815.94;6258105;23;20039;-80
2022/04/02 06:07:48;;;;;;;5.35;4.40;;;;;;;0.61;77.60;100841.00;6255524;23;20326;-78
2022/04/02 06:10:16;;;;;;;8.95;4.95;;;;;;;0.52;77.26;100810.63;6244993;23;20058;-78
2022/04/02 06:12:43;;;;;;;7.57;4.53;;;;;;;0.66;77.41;100839.00;6248707;23;20024;-78
2022/04/02 06:15:10;;;;;;;7.13;4.93;;;;;;;0.67;78.22;100840.66;6243858;23;20024;-79
2022/04/02 06:17:37;;;;;;;6.85;4.57;;;;;;;0.66;78.27;100849.31;6245240;23;20108;-77
2022/04/02 06:20:07;;;;;;;8.05;4.63;;;;;;;0.64;78.29;100843.41;6242533;23;20084;-80
2022/04/02 06:22:34;;;;;;;8.43;5.03;;;;;;;0.66;78.86;100846.72;6243518;23;20024;-77
2022/04/02 06:25:04;;;;;;;6.55;4.35;;;;;;;0.71;78.15;100859.34;6248517;23;20070;-77
2022/04/02 06:27:41;;;;;;;8.65;4.53;;;;;;;0.60;75.62;100834.19;6246471;23;20035;-78
2022/04/02 06:30:08;;;;;;;7.28;4.40;;;;;;;0.73;75.41;100863.50;6245146;23;20024;-78
2022/04/02 06:32:34;;;;;;;6.65;4.30;;;;;;;0.76;75.81;100857.34;6244856;23;20088;-77
2022/04/02 06:50:52;;;;;;;6.53;4.03;;;;;;;0.73;74.87;100850.63;6032645;23;20038;-76
2022/04/02 07:03:58;;;;;;;7.90;4.93;;;;;;;0.92;74.42;100895.03;6116873;23;19917;-80
2022/04/02 07:06:32;;;;;;;10.63;4.55;;;;;;;0.93;74.39;100886.38;6117847;23;20070;-81
2022/04/02 07:09:07;;;;;;;7.38;4.40;;;;;;;0.93;74.72;100891.53;6116862;23;20022;-78
2022/04/02 07:15:30;;;;;;;6.85;4.35;;;;;;;0.93;72.72;100909.56;6187333;22;20013;-77
2022/04/02 07:21:52;;;;;;;8.07;4.77;;;;;;;0.90;73.79;100886.56;6086319;23;20069;-75
2022/04/02 07:37:06;;;;;;;7.50;4.63;;;;;;;1.13;71.94;100912.72;6198854;22;20016;-78
2022/04/02 08:07:01;;;;;;;6.57;4.88;;;;;;;1.26;71.13;100942.03;6195099;23;20019;-79
2022/04/02 08:13:31;;;;;;;11.10;5.10;;;;;;;1.68;70.44;100972.22;6216479;23;20035;-77
2022/04/02 08:16:03;;;;;;;7.10;4.85;;;;;;;1.58;70.63;100958.19;6220247;23;20021;-77
2022/04/02 09:05:54;;;;;;;8.77;4.97;;;;;;;2.40;66.76;101006.56;5989150;24;20047;-82
2022/04/02 09:26:12;;;;;;;9.45;5.57;;;;;;;2.22;65.81;101019.69;5963493;23;20027;-83
2022/04/02 09:32:47;;;;;;;6.43;5.05;;;;;;;2.62;65.13;101037.91;6226721;23;20035;-81
2022/04/02 09:39:05;;;;;;;10.60;5.30;;;;;;;2.59;65.82;101056.19;6162297;23;20025;-84
2022/04/02 09:45:36;;;;;;;10.45;5.38;;;;;;;2.71;64.22;101060.59;6102073;23;20130;-81
2022/04/02 09:48:10;;;;;;;8.65;4.43;;;;;;;2.80;64.90;101046.28;6108457;23;20026;-82
2022/04/02 09:50:42;;;;;;;7.18;5.30;;;;;;;2.63;65.00;101052.47;6202570;23;20131;-82
2022/04/02 09:53:25;;;;;;;7.72;4.88;;;;;;;2.80;65.48;101057.44;6221024;23;20020;-83
2022/04/02 09:56:12;;;;;;;10.02;5.25;;;;;;;2.85;63.94;101050.19;6221520;23;20068;-82
2022/04/02 09:59:08;;;;;;;8.27;5.05;;;;;;;3.02;63.69;101069.00;6223902;23;20111;-82
2022/04/02 10:01:55;;;;;;;11.27;5.57;;;;;;;2.97;63.95;101070.13;6213225;23;20020;-83
2022/04/02 10:04:40;;;;;;;9.38;5.40;;;;;;;3.03;64.10;101078.41;6227202;23;20020;-84
2022/04/02 10:07:27;;;;;;;7.90;5.10;;;;;;;3.20;63.45;101060.09;6221800;23;20068;-85
2022/04/02 10:09:58;;;;;;;7.78;5.65;;;;;;;3.08;62.71;101069.44;6229660;23;20047;-84
2022/04/02 10:12:47;;;;;;;8.20;5.47;;;;;;;2.76;63.11;101066.31;6225277;23;20024;-84
2022/04/02 10:15:24;;;;;;;8.10;5.15;;;;;;;2.75;63.63;101069.81;6225118;23;20016;-84
2022/04/02 10:18:11;;;;;;;8.95;5.07;;;;;;;2.84;63.77;101058.88;6227525;23;20004;-82
2022/04/02 10:20:54;;;;;;;6.85;4.63;;;;;;;3.00;62.35;101067.34;6225708;23;20020;-85
2022/04/02 10:26:33;;;;;;;7.15;5.15;;;;;;;3.40;60.90;101080.31;6228542;23;20080;-84
2022/04/02 10:29:12;;;;;;;7.53;5.32;;;;;;;3.73;62.16;101069.53;6230954;23;20020;-85
2022/04/02 10:31:54;;;;;;;10.60;5.32;;;;;;;3.62;60.50;101075.41;6227957;23;20028;-85
2022/04/02 10:34:48;;;;;;;6.07;4.50;;;;;;;3.59;61.17;101069.59;6235389;23;20027;-85
2022/04/02 10:37:17;;;;;;;9.77;4.75;;;;;;;3.55;58.56;101076.72;6221806;23;20024;-83
2022/04/02 10:39:53;;;;;;;10.88;5.10;;;;;;;3.55;59.38;101068.13;6222369;23;20035;-84
2022/04/02 10:42:40;;;;;;;6.78;4.70;;;;;;;3.75;59.62;101077.19;6224005;23;20090;-85
2022/04/02 10:45:15;;;;;;;6.82;4.90;;;;;;;3.81;58.70;101045.69;6238753;23;20024;-85
2022/04/02 10:48:08;;;;;;;8.52;4.93;;;;;;;3.69;57.33;101069.81;6224375;23;20020;-80
2022/04/02 10:59:46;;;;;;;9.93;4.85;;;;;;;3.74;57.95;101049.66;6214499;23;20020;-84
2022/04/02 11:02:23;;;;;;;8.40;4.82;;;;;;;4.05;56.96;101044.06;6225213;23;20025;-85
2022/04/02 11:05:02;;;;;;;7.82;5.20;;;;;;;3.89;58.26;101069.31;6227999;23;20333;-85
2022/04/02 11:07:34;;;;;;;9.70;5.20;;;;;;;3.94;56.87;101057.72;6229686;23;20017;-86
2022/04/02 11:10:02;;;;;;;7.83;5.00;;;;;;;3.92;57.12;101054.41;6230923;23;20017;-85
2022/04/02 11:12:33;;;;;;;7.68;4.90;;;;;;;3.81;56.08;101056.03;6237567;23;20581;-84
2022/04/02 11:15:09;;;;;;;7.07;5.35;;;;;;;3.93;55.18;101065.59;6239860;23;20008;-85
2022/04/02 11:17:46;;;;;;;7.40;5.18;;;;;;;4.40;56.87;101061.53;6236016;23;20021;-85
2022/04/02 11:20:20;;;;;;;7.05;4.93;;;;;;;4.50;55.94;101081.53;6224335;23;20025;-84
2022/04/02 11:23:19;;;;;;;7.15;5.30;;;;;;;4.39;56.42;101078.84;6225630;23;20016;-85
2022/04/02 11:29:09;;;;;;;6.82;5.47;;;;;;;3.83;58.00;101070.56;6228037;23;20009;-82
2022/04/02 11:31:50;;;;;;;8.18;5.78;;;;;;;4.05;58.78;101075.13;6228060;23;20027;-85
2022/04/02 11:34:21;;;;;;;8.27;5.97;;;;;;;3.90;58.58;101061.44;6234060;23;20047;-87
2022/04/02 11:36:48;;;;;;;7.95;5.60;;;;;;;3.81;58.05;101079.34;6230989;23;20521;-85
2022/04/02 11:39:41;;;;;;;8.27;5.65;;;;;;;4.02;58.30;101084.88;6227705;23;20076;-82
2022/04/02 11:42:21;;;;;;;9.68;6.38;;;;;;;4.28;57.35;101079.56;6224857;23;20076;-86
2022/04/02 11:45:12;;;;;;;26.42;21.25;;;;;;;4.26;56.59;101073.66;6224394;23;20203;-85
2022/04/02 11:48:05;;;;;;;24.77;17.65;;;;;;;4.44;56.27;101078.53;6223489;23;20058;-85
2022/04/02 11:50:51;;;;;;;11.15;8.07;;;;;;;4.18;57.28;101078.56;6224956;23;20017;-86
2022/04/02 11:53:30;;;;;;;10.15;7.00;;;;;;;3.98;57.37;101073.88;6226036;23;20021;-86
2022/04/02 11:56:27;;;;;;;7.57;5.82;;;;;;;3.99;58.31;101080.72;6225351;23;20044;-85
2022/04/02 11:59:13;;;;;;;10.82;6.10;;;;;;;4.01;58.45;101089.22;6232540;23;20059;-85
2022/04/02 12:01:48;;;;;;;10.55;6.50;;;;;;;3.83;59.18;101086.09;6227580;22;20071;-79
2022/04/02 12:04:22;;;;;;;11.05;6.68;;;;;;;4.16;59.93;101080.41;6218218;23;20020;-80
2022/04/02 12:06:54;;;;;;;8.93;6.53;;;;;;;3.95;59.08;101099.97;6222653;23;20403;-81
2022/04/02 12:09:27;;;;;;;8.45;6.97;;;;;;;3.96;59.41;101105.06;6222637;23;20024;-81
2022/04/02 12:12:02;;;;;;;11.57;7.15;;;;;;;4.19;59.38;101100.09;6221230;23;20079;-80
2022/04/02 12:14:34;;;;;;;7.57;5.93;;;;;;;3.86;58.71;101100.59;6221417;23;20017;-80
2022/04/02 12:17:09;;;;;;;8.27;5.97;;;;;;;3.83;59.10;101111.13;6218878;23;20566;-81
2022/04/02 12:19:58;;;;;;;12.45;6.70;;;;;;;3.82;60.41;101105.13;6219637;23;20027;-82
2022/04/02 12:22:30;;;;;;;9.48;6.50;;;;;;;3.55;61.97;101106.94;6219635;23;20021;-80
2022/04/02 12:25:02;;;;;;;9.73;6.55;;;;;;;3.70;61.70;101094.78;6220836;23;20047;-80
2022/04/02 12:27:32;;;;;;;12.73;6.95;;;;;;;3.82;60.19;101092.19;6220259;23;20024;-81
2022/04/02 12:30:06;;;;;;;11.95;7.00;;;;;;;3.90;60.50;101109.81;6219856;23;20017;-78
2022/04/02 12:32:40;;;;;;;9.60;6.07;;;;;;;3.62;61.25;101095.28;6221267;23;20283;-78
2022/04/02 12:35:09;;;;;;;10.52;6.93;;;;;;;3.73;60.16;101099.75;6220310;23;20020;-78
2022/04/02 12:37:44;;;;;;;11.02;6.20;;;;;;;3.92;59.25;101111.38;6220896;23;20320;-81
2022/04/02 12:40:23;;;;;;;9.68;6.07;;;;;;;3.63;59.66;101105.53;6219743;23;20024;-79
2022/04/02 12:43:09;;;;;;;9.20;6.70;;;;;;;3.69;59.31;101119.00;6220751;23;20032;-80
2022/04/02 12:45:40;;;;;;;9.55;6.47;;;;;;;3.91;58.54;101112.28;6220530;23;20043;-79
2022/04/02 12:48:38;;;;;;;10.13;6.80;;;;;;;3.87;59.62;101125.53;6223624;23;20025;-83
2022/04/02 12:51:08;;;;;;;10.88;6.82;;;;;;;3.73;60.97;101104.94;6227671;23;20027;-79
2022/04/02 12:53:40;;;;;;;9.63;6.63;;;;;;;3.77;60.96;101122.75;6222941;23;20021;-80
2022/04/02 12:56:11;;;;;;;11.95;7.10;;;;;;;3.88;61.31;101116.84;6222658;23;20473;-80
2022/04/02 12:58:43;;;;;;;10.55;7.00;;;;;;;3.83;62.24;101135.28;6221746;23;20049;-80
2022/04/02 13:01:28;;;;;;;11.88;7.63;;;;;;;3.59;62.48;101114.41;6222489;23;20107;-82
2022/04/02 13:04:09;;;;;;;9.27;7.07;;;;;;;3.63;64.26;101121.06;6222129;23;20024;-81
2022/04/02 13:06:46;;;;;;;10.95;7.55;;;;;;;3.47;67.10;101129.91;6222692;23;20029;-81
2022/04/02 13:09:15;;;;;;;9.07;7.47;;;;;;;3.56;67.65;101134.47;6222529;23;20013;-81
2022/04/02 13:11:57;;;;;;;12.80;9.40;;;;;;;3.63;68.40;101128.81;6235123;23;20024;-81
2022/04/02 13:14:26;;;;;;;12.38;8.07;;;;;;;3.45;67.99;101129.16;6230182;23;20081;-80
2022/04/02 13:16:55;;;;;;;15.80;12.85;;;;;;;3.22;68.20;101117.72;6221812;23;20048;-80
2022/04/02 13:22:12;;;;;;;13.13;8.40;;;;;;;3.54;68.74;101142.34;6221057;23;20059;-79
2022/04/02 13:24:57;;;;;;;11.95;7.75;;;;;;;3.44;69.73;101146.44;6219523;23;20039;-78
2022/04/02 13:28:00;;;;;;;12.13;7.65;;;;;;;3.21;70.68;101145.31;6219519;23;20031;-81
2022/04/02 13:30:34;;;;;;;10.80;8.10;;;;;;;3.00;71.28;101151.81;6221069;23;20021;-80
2022/04/02 13:33:52;;;;;;;10.80;7.85;;;;;;;2.73;73.19;101141.44;6218475;23;20029;-80
2022/04/02 13:36:35;;;;;;;11.27;8.02;;;;;;;3.03;73.95;101146.47;6219696;23;20091;-80
2022/04/02 13:39:08;;;;;;;13.95;8.70;;;;;;;3.23;71.95;101148.66;6220283;23;20025;-80
2022/04/02 13:41:38;;;;;;;10.95;7.80;;;;;;;3.23;70.88;101147.81;6223202;23;20024;-79
2022/04/02 13:44:08;;;;;;;10.23;7.07;;;;;;;3.28;69.17;101145.78;6224016;23;20035;-80
2022/04/02 13:46:39;;;;;;;10.05;7.30;;;;;;;3.46;68.57;101148.94;6222889;23;20025;-80
2022/04/02 13:49:07;;;;;;;8.57;6.30;;;;;;;3.40;67.30;101144.97;6221119;23;20400;-79
2022/04/02 13:51:44;;;;;;;8.50;6.53;;;;;;;3.67;65.93;101144.97;6220433;23;20021;-79
2022/04/02 13:54:17;;;;;;;9.30;6.70;;;;;;;3.82;64.60;101154.31;6221221;23;20531;-79
2022/04/02 13:57:06;;;;;;;9.57;6.85;;;;;;;3.65;64.91;101133.91;6223594;23;20025;-79
2022/04/02 13:59:37;;;;;;;9.07;6.75;;;;;;;3.95;64.88;101134.47;6235808;23;20051;-81
2022/04/02 14:05:25;;;;;;;9.07;6.40;;;;;;;3.90;62.50;101138.28;6206554;23;20020;-79
2022/04/02 14:07:59;;;;;;;11.23;7.00;;;;;;;4.17;62.48;101152.00;6223211;23;20027;-78
2022/04/02 14:10:36;;;;;;;11.10;6.95;;;;;;;4.28;61.40;101139.16;6223193;23;20108;-79
2022/04/02 14:13:11;;;;;;;10.02;7.60;;;;;;;4.20;61.91;101138.03;6220910;23;20072;-79
2022/04/02 14:15:51;;;;;;;10.85;8.07;;;;;;;4.64;60.81;101153.16;6220530;23;20028;-80
2022/04/02 14:18:24;;;;;;;9.55;6.72;;;;;;;4.45;60.43;101129.41;6219235;23;20376;-80
2022/04/02 14:21:04;;;;;;;7.80;5.95;;;;;;;4.56;59.39;101121.75;6218707;23;20017;-78
2022/04/02 14:23:37;;;;;;;8.77;6.80;;;;;;;4.96;59.35;101135.34;6218685;23;20091;-79
2022/04/02 14:26:35;;;;;;;11.07;7.70;;;;;;;4.72;57.12;101135.31;6217001;23;20025;-80
2022/04/02 14:29:36;;;;;;;6.97;5.50;;;;;;;4.67;56.48;101129.63;6228573;23;20442;-81
2022/04/02 14:32:45;;;;;;;10.05;6.05;;;;;;;4.55;58.34;101138.22;6228311;23;20031;-82
2022/04/02 14:35:52;;;;;;;8.18;6.10;;;;;;;4.53;58.27;101134.91;6229057;23;20024;-81
2022/04/02 14:38:51;;;;;;;9.32;6.18;;;;;;;4.54;59.05;101134.81;6188446;23;20025;-82
2022/04/02 14:41:28;;;;;;;7.90;5.78;;;;;;;4.52;56.94;101130.66;6163435;23;20023;-81
2022/04/02 14:44:40;;;;;;;8.35;6.05;;;;;;;4.13;56.39;101154.91;6228367;23;20025;-81
2022/04/02 14:47:32;;;;;;;8.13;6.20;;;;;;;4.19;58.12;101162.28;6174113;23;20024;-81
2022/04/02 14:50:45;;;;;;;9.40;7.45;;;;;;;4.08;62.16;101168.16;6227792;23;20077;-80
2022/04/02 14:53:49;;;;;;;10.25;7.15;;;;;;;3.76;62.72;101156.50;6229013;23;20028;-81
2022/04/02 14:57:04;;;;;;;9.68;7.32;;;;;;;3.90;62.68;101170.19;6197921;23;20055;-80
2022/04/02 15:00:05;;;;;;;9.45;7.60;;;;;;;3.94;62.28;101150.94;6138492;23;20014;-81
2022/04/02 15:03:29;;;;;;;9.23;7.15;;;;;;;4.32;61.79;101158.75;6231688;23;20025;-81
2022/04/02 15:06:09;;;;;;;;;;;;;;;4.22;60.96;101160.31;6231711;23;20061;-81
2022/04/02 15:09:19;;;;;;;11.40;7.22;;;;;;;4.22;60.51;101157.72;6231223;23;19916;-81
2022/04/02 15:11:55;;;;;;;13.20;8.15;;;;;;;4.26;58.94;101156.56;6237322;23;20024;-80
2022/04/02 15:14:31;;;;;;;11.45;8.70;;;;;;;4.32;58.20;101156.16;6235623;23;20048;-82
2022/04/02 15:17:19;;;;;;;10.10;7.90;;;;;;;4.31;55.33;101170.03;6234122;23;20025;-82
2022/04/02 15:19:48;;;;;;;9.75;5.95;;;;;;;4.39;55.27;101160.91;6237527;23;20080;-79
2022/04/02 15:22:23;;;;;;;7.80;6.53;;;;;;;4.33;54.67;101168.16;6238088;23;20047;-83
2022/04/02 15:24:53;;;;;;;8.85;6.70;;;;;;;4.36;55.47;101166.31;6231901;23;20017;-83
2022/04/02 15:27:48;;;;;;;8.45;6.72;;;;;;;4.39;54.64;101164.34;6231003;23;20031;-82
2022/04/02 15:30:19;;;;;;;8.82;6.90;;;;;;;4.34;55.35;101158.63;6230478;23;20039;-79